Pagina principală
METAR-TAF:

METAR-TAF

Aeroporturi :

Aeroportul Delta Dunării Tulcea

Tulcea, România

Latitudine: 45-11N, longitudine: 028-49E, elevație: 4 m

Observații meteo curente

Raportul a fost făcut în urmă cu 25 de minute, la 02:00 UTC
Vânt 6 kt de la Est
Temperatură 6°C
Umiditate 93%
Presiune 1020 hPa
Vizibilitate: 6000 m

METAR: LRTC 010200Z AUTO 10006KT 6000 BKN009/// OVC011/// 06/05 Q1020

Ora: 04:25 (02:25 UTC)

Prognoză

Raportul a fost făcut în urmă cu 15 ore și 25 de minute, la 11:00 UTC
Prognoză valabilă de la 29 ora 12 UTC la 29 ora 21 UTC
Vânt 10 kt de la Sud-est
Vizibilitate de 10 km sau mai mult
Total acoperit la o înălțime de 1000 picior
Probabilitate 40% :
Temporar
de la 29 ora 12 UTC la 29 ora 15 UTC
Total acoperit la o înălțime de 1500 picior

TAF: LRTC 291100Z 2912/2921 13010KT 9999 OVC010 PROB40 TEMPO 2912/2915 OVC015

Observații și prognoze meteo pentru peste 4.000 de aeroporturi (rapoarte METAR și TAF).

Stațiile disponibile sunt reprezentate pe hartă prin puncte galbene și roșii.

Țineți indicatorul mouse-ului pe punctul dorit pentru a vedea denumirea stației.

Apoi, faceți clic pentru a vedea observațiile și prognozele meteorologice.

Pentru a schimba harta: Pentru mărire, faceți clic pe butoanele verzi cu cruce neagră; pentru micșorare, pe butonul verde cu o liniuță; pentru hărți învecinate, pe săgețile verzi.


METAR-TAF: